This is the latest recevied weather packets stored in our database for station/object HK4LRM-13. If no packets are shown the sender has not sent any weather packets the latest 10 day(s).
| Time | Temp. | Humidity | Pressure | Rain* | Wind** | Luminosity | Snow |
|---|---|---|---|---|---|---|---|
| 1777989500 | 19.44° C | 87% | 1015 hPa | 0 mm | - | - | - |
| 1777988960 | 19.44° C | 86% | 1016 hPa | 0 mm | - | - | - |
| 1777988419 | 19.44° C | 88% | 1016 hPa | 0 mm | - | - | - |
| 1777987879 | 17.78° C | 92% | 1017 hPa | 0 mm | - | - | - |
| 1777987338 | 18.33° C | 92% | 1017 hPa | 0 mm | - | - | - |
| 1777986797 | 18.33° C | 92% | 1017 hPa | 0 mm | - | - | - |
| 1777986253 | 18.89° C | 91% | 1017 hPa | 0 mm | - | - | - |
| 1777985713 | 18.89° C | 91% | 1017 hPa | 0 mm | - | - | - |
| 1777985170 | 19.44° C | 91% | 1017 hPa | 0 mm | - | - | - |
| 1777984628 | 16.11° C | 97% | 1017 hPa | 0 mm | - | - | - |
| 1777984087 | 16.11° C | 97% | 1017 hPa | 0 mm | - | - | - |
| 1777983547 | 16.11° C | 97% | 1017 hPa | 0 mm | - | - | - |
| 1777983006 | 16.11° C | 97% | 1016 hPa | 0 mm | - | - | - |
| 1777982466 | 16.11° C | 97% | 1016 hPa | 0 mm | - | - | - |
| 1777981925 | 16.11° C | 97% | 1016 hPa | 0 mm | - | - | - |
| 1777981385 | 16.11° C | 97% | 1016 hPa | 0 mm | - | - | - |
| 1777980844 | 16.11° C | 97% | 1016 hPa | 0 mm | - | - | - |
| 1777980303 | 16.11° C | 97% | 1015 hPa | 0 mm | - | - | - |
| 1777979763 | 16.11° C | 98% | 1015 hPa | 0 mm | - | - | - |
| 1777979222 | 16.11° C | 98% | 1015 hPa | 0 mm | - | - | - |
| 1777978682 | 16.11° C | 98% | 1015 hPa | 0 mm | - | - | - |
| 1777978141 | 16.11° C | 98% | 1015 hPa | 0 mm | - | - | - |
| 1777977600 | 16.11° C | 98% | 1015 hPa | 0 mm | - | - | - |
| 1777977059 | 16.11° C | 98% | 1015 hPa | 0 mm | - | - | - |
| 1777976519 | 16.11° C | 98% | 1015 hPa | 0 mm | - | - | - |
* Rain latest hour (hover to see other rain measurements)
** Current wind speed in m/s (hover to see current wind gust speed)